METAR rapporten vliegvelden

   
EBAW - Antwerp
Gewijzigd: 09-12-2019 16:50
Light Showers, Regen, Grotendeels bewolkt  
Light Showers, Regen, Grotendeels bewolkt  
   Wind: NNW 29.6 km/h<br />Gust to 29.6 km/h
Wind: NNW 29.6 km/h
Gust to 29.6 km/h
Temperatuur: 7°C
Voelt als: 3°C
Dauwpunt: 3°C
Vochtigheid: 76%
Barometer: 1010 hPa
Bewolking: Grotendeels bewolkt
Zicht: 6 km
Bewolking: Gedeeltelijk bewolkt 1700 ft,
Grotendeels bewolkt 3000 ft
EBAW 091550Z 34016G33KT 320V020 6000 -SHRA SCT017 BKN030 07/03 Q1010 TEMPO 4000 SHRA
EBLG - Li├Ęge
Gewijzigd: 09-12-2019 16:50
Light Showers, Regen, Grotendeels bewolkt  
Light Showers, Regen, Grotendeels bewolkt  
   Wind: NNW 35.2 km/h<br />Gust to 35.2 km/h
Wind: NNW 35.2 km/h
Gust to 35.2 km/h
Temperatuur: 6°C
Voelt als: 1°C
Dauwpunt: 4°C
Vochtigheid: 87%
Barometer: 1007 hPa
Bewolking: Grotendeels bewolkt
Zicht: 6 km
Bewolking: Licht bewolkt 600 ft,
Grotendeels bewolkt 700 ft,
Grotendeels bewolkt 1000 ft
EBLG 091550Z 33019G30KT 290V350 6000 -SHRA FEW006 BKN007 BKN010 06/04 Q1007 TEMPO 23025G38KT 3000 SHRA
EBCV - Mons/Bergen
Gewijzigd: 09-12-2019 16:15
Wat regen mogelijk, Grotendeels bewolkt  
Wat regen mogelijk, Grotendeels bewolkt  
   Wind: NW 31.5 km/h
Wind: NW 31.5 km/h
Temperatuur: 6°C
Voelt als: 1°C
Dauwpunt: 4°C
Vochtigheid: 87%
Barometer: 1011 hPa
Bewolking: Grotendeels bewolkt
Zicht: 4.2 km
Bewolking: Grotendeels bewolkt 2200 ft,
Grotendeels bewolkt 3300 ft
EBCV 091515Z AUTO 31017KT 4200 -RA BKN022/// BKN033/// 06/04 Q1011 GRN
EHBK - Maastricht
Gewijzigd: 09-12-2019 16:55
Regen, Grotendeels bewolkt  
Regen, Grotendeels bewolkt  
   Wind: NNW 20.4 km/h
Wind: NNW 20.4 km/h
Temperatuur: 7°C
Voelt als: 3°C
Dauwpunt: 6°C
Vochtigheid: 93%
Barometer: 1006 hPa
Bewolking: Grotendeels bewolkt
Zicht: meer dan 10 km
Bewolking: Gedeeltelijk bewolkt 700 ft,
Grotendeels bewolkt 800 ft,
Grotendeels bewolkt 1000 ft,
Licht bewolkt 1500 ft
EHBK 091555Z AUTO 33011KT 290V360 9999 RA SCT007 BKN008 BKN010 FEW015CB 07/06 Q1006 BECMG BKN020 TEMPO 33015G25KT 6000 SHRA BKN014 SCT020CB
ELLX - Luxemburg
Gewijzigd: 09-12-2019 16:50
Wat regen mogelijk, Grotendeels bewolkt  
Wat regen mogelijk, Grotendeels bewolkt  
   Wind: Westen 25.9 km/h
Wind: Westen 25.9 km/h
Temperatuur: 5°C
Voelt als: 1°C
Dauwpunt: 3°C
Vochtigheid: 87%
Barometer: 1006 hPa
Bewolking: Grotendeels bewolkt
Zicht: meer dan 10 km
Bewolking: Gedeeltelijk bewolkt 1200 ft,
Grotendeels bewolkt 1700 ft
ELLX 091550Z 27014KT 9999 -RA SCT012 BKN017 05/03 Q1006 NOSIG
EBOS - Oostende
Gewijzigd: 09-12-2019 16:50
Gedeeltelijk bewolkt  
Gedeeltelijk bewolkt  
   Wind: NNW 40.7 km/h
Wind: NNW 40.7 km/h
Temperatuur: 8°C
Voelt als: 3°C
Dauwpunt: 4°C
Vochtigheid: 76%
Barometer: 1014 hPa
Bewolking: Gedeeltelijk bewolkt
Zicht: 9 km
Bewolking: Licht bewolkt 2100 ft,
Gedeeltelijk bewolkt 3000 ft
EBOS 091550Z 33022KT 9000 FEW021TCU SCT030 08/04 Q1014 TEMPO 33024G38KT

Script ontwikkeld door  Saratoga-weather.org Aangepast voor de template door  Weerstation Leuven